sensor_id;sensor_type;location;lat;lon;timestamp;temperature;humidity
26743;DHT22;14341;51.256;22.478;2023-03-31T00:08:44;6.70;99.90
26743;DHT22;14341;51.256;22.478;2023-03-31T00:11:48;6.70;99.90
26743;DHT22;14341;51.256;22.478;2023-03-31T00:14:52;6.70;99.90
26743;DHT22;14341;51.256;22.478;2023-03-31T00:17:56;6.70;99.90
26743;DHT22;14341;51.256;22.478;2023-03-31T00:21:09;6.70;99.90
26743;DHT22;14341;51.256;22.478;2023-03-31T00:24:28;6.70;99.90
26743;DHT22;14341;51.256;22.478;2023-03-31T00:27:33;6.70;99.90
26743;DHT22;14341;51.256;22.478;2023-03-31T00:30:36;6.70;99.90
26743;DHT22;14341;51.256;22.478;2023-03-31T00:33:40;6.70;99.90
26743;DHT22;14341;51.256;22.478;2023-03-31T00:36:44;6.70;99.90
26743;DHT22;14341;51.256;22.478;2023-03-31T00:39:49;6.70;99.90
26743;DHT22;14341;51.256;22.478;2023-03-31T00:42:53;6.70;99.90
26743;DHT22;14341;51.256;22.478;2023-03-31T00:46:05;6.70;99.90
26743;DHT22;14341;51.256;22.478;2023-03-31T00:49:21;6.80;99.90
26743;DHT22;14341;51.256;22.478;2023-03-31T00:52:29;6.80;99.90
26743;DHT22;14341;51.256;22.478;2023-03-31T00:55:41;6.80;99.90
26743;DHT22;14341;51.256;22.478;2023-03-31T00:58:45;6.80;99.90
26743;DHT22;14341;51.256;22.478;2023-03-31T01:01:48;6.80;99.90
26743;DHT22;14341;51.256;22.478;2023-03-31T01:04:56;6.80;99.90
26743;DHT22;14341;51.256;22.478;2023-03-31T01:08:04;6.80;99.90
26743;DHT22;14341;51.256;22.478;2023-03-31T01:11:11;6.90;99.90
26743;DHT22;14341;51.256;22.478;2023-03-31T01:14:15;6.80;99.90
26743;DHT22;14341;51.256;22.478;2023-03-31T01:17:19;6.80;99.90
26743;DHT22;14341;51.256;22.478;2023-03-31T01:20:28;6.80;99.90
26743;DHT22;14341;51.256;22.478;2023-03-31T01:24:08;6.90;99.90
26743;DHT22;14341;51.256;22.478;2023-03-31T01:27:48;6.90;99.90
26743;DHT22;14341;51.256;22.478;2023-03-31T01:31:26;6.80;99.90
26743;DHT22;14341;51.256;22.478;2023-03-31T01:35:01;6.90;99.90
26743;DHT22;14341;51.256;22.478;2023-03-31T01:38:35;6.80;99.90
26743;DHT22;14341;51.256;22.478;2023-03-31T01:41:48;6.90;99.90
26743;DHT22;14341;51.256;22.478;2023-03-31T01:45:01;6.90;99.90
26743;DHT22;14341;51.256;22.478;2023-03-31T01:48:08;6.90;99.90
26743;DHT22;14341;51.256;22.478;2023-03-31T01:51:17;6.90;99.90
26743;DHT22;14341;51.256;22.478;2023-03-31T01:54:27;6.90;99.90
26743;DHT22;14341;51.256;22.478;2023-03-31T01:57:36;7.00;99.90
26743;DHT22;14341;51.256;22.478;2023-03-31T02:04:20;7.00;99.90
26743;DHT22;14341;51.256;22.478;2023-03-31T02:07:28;7.00;99.90
26743;DHT22;14341;51.256;22.478;2023-03-31T02:10:36;7.00;99.90
26743;DHT22;14341;51.256;22.478;2023-03-31T02:13:43;7.00;99.90
26743;DHT22;14341;51.256;22.478;2023-03-31T02:16:51;7.00;99.90
26743;DHT22;14341;51.256;22.478;2023-03-31T02:20:03;7.10;99.90
26743;DHT22;14341;51.256;22.478;2023-03-31T02:23:12;7.10;99.90
26743;DHT22;14341;51.256;22.478;2023-03-31T02:26:19;7.10;99.90
26743;DHT22;14341;51.256;22.478;2023-03-31T02:29:27;7.10;99.90
26743;DHT22;14341;51.256;22.478;2023-03-31T02:32:34;7.10;99.90
26743;DHT22;14341;51.256;22.478;2023-03-31T02:35:39;7.10;99.90
26743;DHT22;14341;51.256;22.478;2023-03-31T02:38:46;7.10;99.90
26743;DHT22;14341;51.256;22.478;2023-03-31T02:41:52;7.20;99.90
26743;DHT22;14341;51.256;22.478;2023-03-31T02:45:02;7.30;99.90
26743;DHT22;14341;51.256;22.478;2023-03-31T02:48:07;7.40;99.90
26743;DHT22;14341;51.256;22.478;2023-03-31T02:55:14;7.40;99.90
26743;DHT22;14341;51.256;22.478;2023-03-31T02:58:32;7.40;99.90
26743;DHT22;14341;51.256;22.478;2023-03-31T03:01:47;7.40;99.90
26743;DHT22;14341;51.256;22.478;2023-03-31T03:05:08;7.40;99.90
26743;DHT22;14341;51.256;22.478;2023-03-31T03:08:27;7.50;99.90
26743;DHT22;14341;51.256;22.478;2023-03-31T03:11:35;7.50;99.90
26743;DHT22;14341;51.256;22.478;2023-03-31T03:14:45;7.60;99.90
26743;DHT22;14341;51.256;22.478;2023-03-31T03:17:52;7.60;99.90
26743;DHT22;14341;51.256;22.478;2023-03-31T03:20:57;7.60;99.90
26743;DHT22;14341;51.256;22.478;2023-03-31T03:24:00;7.60;99.90
26743;DHT22;14341;51.256;22.478;2023-03-31T03:27:03;7.50;99.90
26743;DHT22;14341;51.256;22.478;2023-03-31T03:30:10;7.60;99.90
26743;DHT22;14341;51.256;22.478;2023-03-31T03:33:15;7.60;99.90
26743;DHT22;14341;51.256;22.478;2023-03-31T03:36:19;7.60;99.90
26743;DHT22;14341;51.256;22.478;2023-03-31T03:39:24;7.70;99.90
26743;DHT22;14341;51.256;22.478;2023-03-31T03:42:27;7.80;99.90
26743;DHT22;14341;51.256;22.478;2023-03-31T03:45:30;7.80;99.90
26743;DHT22;14341;51.256;22.478;2023-03-31T03:48:35;7.80;99.90
26743;DHT22;14341;51.256;22.478;2023-03-31T03:51:38;7.80;99.90
26743;DHT22;14341;51.256;22.478;2023-03-31T03:54:41;7.80;99.90
26743;DHT22;14341;51.256;22.478;2023-03-31T03:57:44;7.80;99.90
26743;DHT22;14341;51.256;22.478;2023-03-31T04:00:48;7.80;99.90
26743;DHT22;14341;51.256;22.478;2023-03-31T04:03:53;7.90;99.90
26743;DHT22;14341;51.256;22.478;2023-03-31T04:06:56;7.80;99.90
26743;DHT22;14341;51.256;22.478;2023-03-31T04:10:00;7.90;99.90
26743;DHT22;14341;51.256;22.478;2023-03-31T04:13:03;7.90;99.90
26743;DHT22;14341;51.256;22.478;2023-03-31T04:16:07;8.00;99.90
26743;DHT22;14341;51.256;22.478;2023-03-31T04:19:12;8.00;99.90
26743;DHT22;14341;51.256;22.478;2023-03-31T04:22:18;8.00;99.90
26743;DHT22;14341;51.256;22.478;2023-03-31T04:25:21;8.10;99.90
26743;DHT22;14341;51.256;22.478;2023-03-31T04:28:25;8.10;99.90
26743;DHT22;14341;51.256;22.478;2023-03-31T04:31:36;8.00;99.90
26743;DHT22;14341;51.256;22.478;2023-03-31T04:34:45;8.00;99.90
26743;DHT22;14341;51.256;22.478;2023-03-31T04:37:50;8.10;99.90
26743;DHT22;14341;51.256;22.478;2023-03-31T04:40:59;8.10;99.90
26743;DHT22;14341;51.256;22.478;2023-03-31T04:44:03;8.10;99.90
26743;DHT22;14341;51.256;22.478;2023-03-31T04:47:06;8.20;99.90
26743;DHT22;14341;51.256;22.478;2023-03-31T04:50:11;8.20;99.90
26743;DHT22;14341;51.256;22.478;2023-03-31T04:53:17;8.30;99.90
26743;DHT22;14341;51.256;22.478;2023-03-31T04:56:21;8.30;99.90
26743;DHT22;14341;51.256;22.478;2023-03-31T04:59:24;8.30;99.90
26743;DHT22;14341;51.256;22.478;2023-03-31T05:02:27;8.40;99.90
26743;DHT22;14341;51.256;22.478;2023-03-31T05:05:33;8.40;99.90
26743;DHT22;14341;51.256;22.478;2023-03-31T05:08:36;8.40;99.90
26743;DHT22;14341;51.256;22.478;2023-03-31T05:11:39;8.50;99.90
26743;DHT22;14341;51.256;22.478;2023-03-31T05:14:42;8.50;99.90
26743;DHT22;14341;51.256;22.478;2023-03-31T05:17:45;8.50;99.90
26743;DHT22;14341;51.256;22.478;2023-03-31T05:20:50;8.50;99.90
26743;DHT22;14341;51.256;22.478;2023-03-31T05:23:54;8.50;99.90
26743;DHT22;14341;51.256;22.478;2023-03-31T05:26:57;8.60;99.90
26743;DHT22;14341;51.256;22.478;2023-03-31T05:30:01;8.50;99.90
26743;DHT22;14341;51.256;22.478;2023-03-31T05:33:05;8.60;99.90
26743;DHT22;14341;51.256;22.478;2023-03-31T05:36:11;8.60;99.90
26743;DHT22;14341;51.256;22.478;2023-03-31T05:39:15;8.70;99.90
26743;DHT22;14341;51.256;22.478;2023-03-31T05:42:19;8.80;99.90
26743;DHT22;14341;51.256;22.478;2023-03-31T05:45:22;8.80;99.90
26743;DHT22;14341;51.256;22.478;2023-03-31T05:48:26;8.90;99.90
26743;DHT22;14341;51.256;22.478;2023-03-31T05:51:31;8.90;99.90
26743;DHT22;14341;51.256;22.478;2023-03-31T05:54:34;8.90;99.90
26743;DHT22;14341;51.256;22.478;2023-03-31T05:57:37;9.00;99.90
26743;DHT22;14341;51.256;22.478;2023-03-31T06:00:41;9.10;99.90
26743;DHT22;14341;51.256;22.478;2023-03-31T06:03:45;9.10;99.90
26743;DHT22;14341;51.256;22.478;2023-03-31T06:06:50;9.10;99.90
26743;DHT22;14341;51.256;22.478;2023-03-31T06:09:54;9.20;99.90
26743;DHT22;14341;51.256;22.478;2023-03-31T06:12:58;9.30;99.90
26743;DHT22;14341;51.256;22.478;2023-03-31T06:16:01;9.40;99.90
26743;DHT22;14341;51.256;22.478;2023-03-31T06:19:04;9.50;99.90
26743;DHT22;14341;51.256;22.478;2023-03-31T06:22:09;9.40;99.90
26743;DHT22;14341;51.256;22.478;2023-03-31T06:25:13;9.40;99.90
26743;DHT22;14341;51.256;22.478;2023-03-31T06:28:17;9.40;99.90
26743;DHT22;14341;51.256;22.478;2023-03-31T06:31:22;9.50;99.90
26743;DHT22;14341;51.256;22.478;2023-03-31T06:34:26;9.50;99.90
26743;DHT22;14341;51.256;22.478;2023-03-31T06:37:30;9.70;99.90
26743;DHT22;14341;51.256;22.478;2023-03-31T06:40:34;9.70;99.90
26743;DHT22;14341;51.256;22.478;2023-03-31T06:43:37;9.90;99.90
26743;DHT22;14341;51.256;22.478;2023-03-31T06:46:41;10.10;99.90
26743;DHT22;14341;51.256;22.478;2023-03-31T06:49:45;10.20;99.90
26743;DHT22;14341;51.256;22.478;2023-03-31T06:52:49;10.20;99.90
26743;DHT22;14341;51.256;22.478;2023-03-31T06:55:56;10.30;99.90
26743;DHT22;14341;51.256;22.478;2023-03-31T06:58:59;10.50;99.90
26743;DHT22;14341;51.256;22.478;2023-03-31T07:02:03;10.30;99.90
26743;DHT22;14341;51.256;22.478;2023-03-31T07:05:07;10.30;99.90
26743;DHT22;14341;51.256;22.478;2023-03-31T07:08:11;10.40;99.90
26743;DHT22;14341;51.256;22.478;2023-03-31T07:11:18;10.40;99.90
26743;DHT22;14341;51.256;22.478;2023-03-31T07:14:22;10.40;99.90
26743;DHT22;14341;51.256;22.478;2023-03-31T07:17:25;10.60;99.90
26743;DHT22;14341;51.256;22.478;2023-03-31T07:20:29;10.80;99.90
26743;DHT22;14341;51.256;22.478;2023-03-31T07:23:35;10.80;99.90
26743;DHT22;14341;51.256;22.478;2023-03-31T07:26:38;11.00;99.90
26743;DHT22;14341;51.256;22.478;2023-03-31T07:29:42;11.30;99.90
26743;DHT22;14341;51.256;22.478;2023-03-31T07:32:46;11.60;99.90
26743;DHT22;14341;51.256;22.478;2023-03-31T07:35:50;11.50;99.90
26743;DHT22;14341;51.256;22.478;2023-03-31T07:39:13;11.50;99.90
26743;DHT22;14341;51.256;22.478;2023-03-31T07:42:17;11.40;99.90
26743;DHT22;14341;51.256;22.478;2023-03-31T07:45:22;11.30;99.90
26743;DHT22;14341;51.256;22.478;2023-03-31T07:48:26;11.50;99.90
26743;DHT22;14341;51.256;22.478;2023-03-31T07:51:30;11.80;99.90
26743;DHT22;14341;51.256;22.478;2023-03-31T07:54:35;11.80;99.90
26743;DHT22;14341;51.256;22.478;2023-03-31T07:57:38;12.10;99.90
26743;DHT22;14341;51.256;22.478;2023-03-31T08:00:43;11.90;99.90
26743;DHT22;14341;51.256;22.478;2023-03-31T08:03:47;11.90;99.90
26743;DHT22;14341;51.256;22.478;2023-03-31T08:06:51;12.10;99.90
26743;DHT22;14341;51.256;22.478;2023-03-31T08:09:56;12.10;99.90
26743;DHT22;14341;51.256;22.478;2023-03-31T08:12:59;12.10;99.90
26743;DHT22;14341;51.256;22.478;2023-03-31T08:16:03;12.10;99.90
26743;DHT22;14341;51.256;22.478;2023-03-31T08:19:07;12.20;99.90
26743;DHT22;14341;51.256;22.478;2023-03-31T08:22:10;12.20;99.90
26743;DHT22;14341;51.256;22.478;2023-03-31T08:25:15;12.40;99.90
26743;DHT22;14341;51.256;22.478;2023-03-31T08:28:18;12.60;99.90
26743;DHT22;14341;51.256;22.478;2023-03-31T08:31:22;12.60;99.90
26743;DHT22;14341;51.256;22.478;2023-03-31T08:34:28;12.50;99.90
26743;DHT22;14341;51.256;22.478;2023-03-31T08:37:31;12.60;99.90
26743;DHT22;14341;51.256;22.478;2023-03-31T08:40:39;12.80;99.90
26743;DHT22;14341;51.256;22.478;2023-03-31T08:43:45;13.00;99.90
26743;DHT22;14341;51.256;22.478;2023-03-31T08:46:52;13.10;99.90
26743;DHT22;14341;51.256;22.478;2023-03-31T08:49:59;13.10;99.90
26743;DHT22;14341;51.256;22.478;2023-03-31T08:53:07;13.30;99.90
26743;DHT22;14341;51.256;22.478;2023-03-31T08:56:19;13.30;99.90
26743;DHT22;14341;51.256;22.478;2023-03-31T08:59:27;13.10;99.90
26743;DHT22;14341;51.256;22.478;2023-03-31T09:02:35;13.00;99.90
26743;DHT22;14341;51.256;22.478;2023-03-31T09:05:45;13.00;99.90
26743;DHT22;14341;51.256;22.478;2023-03-31T09:09:01;13.20;99.90
26743;DHT22;14341;51.256;22.478;2023-03-31T09:12:10;13.30;99.90
26743;DHT22;14341;51.256;22.478;2023-03-31T09:15:21;13.00;99.90
26743;DHT22;14341;51.256;22.478;2023-03-31T09:18:29;13.00;99.90
26743;DHT22;14341;51.256;22.478;2023-03-31T09:21:36;13.10;99.90
26743;DHT22;14341;51.256;22.478;2023-03-31T09:24:49;13.40;99.90
26743;DHT22;14341;51.256;22.478;2023-03-31T09:27:56;13.30;99.90
26743;DHT22;14341;51.256;22.478;2023-03-31T09:31:03;13.60;99.90
26743;DHT22;14341;51.256;22.478;2023-03-31T09:34:14;13.60;99.90
26743;DHT22;14341;51.256;22.478;2023-03-31T09:37:18;13.90;99.90
26743;DHT22;14341;51.256;22.478;2023-03-31T09:40:23;14.30;98.00
26743;DHT22;14341;51.256;22.478;2023-03-31T09:43:31;14.40;92.30
26743;DHT22;14341;51.256;22.478;2023-03-31T09:46:36;14.40;92.20
26743;DHT22;14341;51.256;22.478;2023-03-31T09:49:44;14.40;96.00
26743;DHT22;14341;51.256;22.478;2023-03-31T09:52:56;14.50;73.60
26743;DHT22;14341;51.256;22.478;2023-03-31T09:56:01;14.30;92.40
26743;DHT22;14341;51.256;22.478;2023-03-31T09:59:13;14.30;64.60
26743;DHT22;14341;51.256;22.478;2023-03-31T10:02:33;14.30;48.50
26743;DHT22;14341;51.256;22.478;2023-03-31T10:05:38;14.40;25.60
26743;DHT22;14341;51.256;22.478;2023-03-31T10:08:53;14.30;47.30
26743;DHT22;14341;51.256;22.478;2023-03-31T10:12:01;14.80;26.90
26743;DHT22;14341;51.256;22.478;2023-03-31T10:15:20;14.70;3.00
26743;DHT22;14341;51.256;22.478;2023-03-31T10:18:33;14.80;1.00
26743;DHT22;14341;51.256;22.478;2023-03-31T10:21:36;14.60;1.00
26743;DHT22;14341;51.256;22.478;2023-03-31T10:24:42;14.80;1.00
26743;DHT22;14341;51.256;22.478;2023-03-31T10:27:48;15.30;15.10
26743;DHT22;14341;51.256;22.478;2023-03-31T10:30:56;15.40;1.00
26743;DHT22;14341;51.256;22.478;2023-03-31T10:34:05;15.40;1.00
26743;DHT22;14341;51.256;22.478;2023-03-31T10:37:14;15.00;1.00
26743;DHT22;14341;51.256;22.478;2023-03-31T10:40:21;14.90;1.00
26743;DHT22;14341;51.256;22.478;2023-03-31T10:43:26;14.90;1.00
26743;DHT22;14341;51.256;22.478;2023-03-31T10:46:45;15.00;1.00
26743;DHT22;14341;51.256;22.478;2023-03-31T10:49:54;15.20;1.00
26743;DHT22;14341;51.256;22.478;2023-03-31T10:53:03;14.40;1.00
26743;DHT22;14341;51.256;22.478;2023-03-31T10:56:20;15.10;1.00
26743;DHT22;14341;51.256;22.478;2023-03-31T10:59:38;15.30;1.00
26743;DHT22;14341;51.256;22.478;2023-03-31T11:06:51;15.70;1.00
26743;DHT22;14341;51.256;22.478;2023-03-31T11:10:16;15.70;1.00
26743;DHT22;14341;51.256;22.478;2023-03-31T11:13:24;15.80;1.00
26743;DHT22;14341;51.256;22.478;2023-03-31T11:16:35;16.00;1.00
26743;DHT22;14341;51.256;22.478;2023-03-31T11:19:48;16.60;1.00
26743;DHT22;14341;51.256;22.478;2023-03-31T11:22:59;16.70;1.00
26743;DHT22;14341;51.256;22.478;2023-03-31T11:26:09;16.50;1.00
26743;DHT22;14341;51.256;22.478;2023-03-31T11:29:21;16.20;1.00
26743;DHT22;14341;51.256;22.478;2023-03-31T11:32:41;16.20;1.00
26743;DHT22;14341;51.256;22.478;2023-03-31T11:36:01;16.00;1.00
26743;DHT22;14341;51.256;22.478;2023-03-31T11:39:17;16.30;1.00
26743;DHT22;14341;51.256;22.478;2023-03-31T11:42:26;16.30;1.00
26743;DHT22;14341;51.256;22.478;2023-03-31T11:45:34;16.20;1.00
26743;DHT22;14341;51.256;22.478;2023-03-31T11:48:44;16.20;1.00
26743;DHT22;14341;51.256;22.478;2023-03-31T11:51:52;16.40;1.00
26743;DHT22;14341;51.256;22.478;2023-03-31T11:54:59;16.00;1.00
26743;DHT22;14341;51.256;22.478;2023-03-31T11:58:06;15.90;1.00
26743;DHT22;14341;51.256;22.478;2023-03-31T12:01:18;15.30;1.00
26743;DHT22;14341;51.256;22.478;2023-03-31T12:04:30;14.90;1.00
26743;DHT22;14341;51.256;22.478;2023-03-31T12:07:40;14.80;1.00
26743;DHT22;14341;51.256;22.478;2023-03-31T12:10:49;14.70;1.00
26743;DHT22;14341;51.256;22.478;2023-03-31T12:13:59;15.10;1.00
26743;DHT22;14341;51.256;22.478;2023-03-31T12:17:10;15.70;1.00
26743;DHT22;14341;51.256;22.478;2023-03-31T12:20:20;15.90;1.00
26743;DHT22;14341;51.256;22.478;2023-03-31T12:23:29;15.80;1.00
26743;DHT22;14341;51.256;22.478;2023-03-31T12:26:39;15.40;1.00
26743;DHT22;14341;51.256;22.478;2023-03-31T12:29:47;15.00;1.00
26743;DHT22;14341;51.256;22.478;2023-03-31T12:32:55;14.80;1.00
26743;DHT22;14341;51.256;22.478;2023-03-31T12:36:10;14.80;1.00
26743;DHT22;14341;51.256;22.478;2023-03-31T12:39:26;14.80;1.00
26743;DHT22;14341;51.256;22.478;2023-03-31T12:42:55;14.70;1.00
26743;DHT22;14341;51.256;22.478;2023-03-31T12:46:09;14.50;13.40
26743;DHT22;14341;51.256;22.478;2023-03-31T12:49:38;14.40;14.40
26743;DHT22;14341;51.256;22.478;2023-03-31T12:52:49;14.50;2.90
26743;DHT22;14341;51.256;22.478;2023-03-31T12:55:57;14.40;1.00
26743;DHT22;14341;51.256;22.478;2023-03-31T12:59:16;15.40;1.00
26743;DHT22;14341;51.256;22.478;2023-03-31T13:02:24;14.70;1.00
26743;DHT22;14341;51.256;22.478;2023-03-31T13:05:46;14.90;1.00
26743;DHT22;14341;51.256;22.478;2023-03-31T13:08:54;14.90;1.00
26743;DHT22;14341;51.256;22.478;2023-03-31T13:12:05;14.70;1.00
26743;DHT22;14341;51.256;22.478;2023-03-31T13:15:12;14.90;1.00
26743;DHT22;14341;51.256;22.478;2023-03-31T13:18:18;15.10;1.00
26743;DHT22;14341;51.256;22.478;2023-03-31T13:21:23;15.20;1.00
26743;DHT22;14341;51.256;22.478;2023-03-31T13:24:28;15.10;1.00
26743;DHT22;14341;51.256;22.478;2023-03-31T13:27:33;15.20;1.00
26743;DHT22;14341;51.256;22.478;2023-03-31T13:30:54;15.20;1.00
26743;DHT22;14341;51.256;22.478;2023-03-31T13:33:58;15.00;1.00
26743;DHT22;14341;51.256;22.478;2023-03-31T13:37:13;15.20;1.00
26743;DHT22;14341;51.256;22.478;2023-03-31T13:48:09;15.60;1.00
26743;DHT22;14341;51.256;22.478;2023-03-31T13:51:25;15.70;1.00
26743;DHT22;14341;51.256;22.478;2023-03-31T13:54:49;15.50;1.00
26743;DHT22;14341;51.256;22.478;2023-03-31T14:01:52;15.20;1.00
26743;DHT22;14341;51.256;22.478;2023-03-31T14:05:22;15.10;1.00
26743;DHT22;14341;51.256;22.478;2023-03-31T14:08:38;15.00;1.00
26743;DHT22;14341;51.256;22.478;2023-03-31T14:11:44;14.80;1.00
26743;DHT22;14341;51.256;22.478;2023-03-31T14:14:52;14.90;1.00
26743;DHT22;14341;51.256;22.478;2023-03-31T14:17:55;15.40;1.00
26743;DHT22;14341;51.256;22.478;2023-03-31T14:21:09;16.10;1.00
26743;DHT22;14341;51.256;22.478;2023-03-31T14:24:24;16.30;1.00
26743;DHT22;14341;51.256;22.478;2023-03-31T14:27:43;16.40;1.00
26743;DHT22;14341;51.256;22.478;2023-03-31T14:30:53;16.70;99.90
26743;DHT22;14341;51.256;22.478;2023-03-31T14:34:21;17.10;99.90
26743;DHT22;14341;51.256;22.478;2023-03-31T14:37:30;16.70;99.90
26743;DHT22;14341;51.256;22.478;2023-03-31T14:40:33;16.30;99.90
26743;DHT22;14341;51.256;22.478;2023-03-31T14:43:44;15.90;99.90
26743;DHT22;14341;51.256;22.478;2023-03-31T14:46:50;15.60;99.90
26743;DHT22;14341;51.256;22.478;2023-03-31T14:50:01;15.50;1.00
26743;DHT22;14341;51.256;22.478;2023-03-31T14:53:14;15.30;1.00
26743;DHT22;14341;51.256;22.478;2023-03-31T14:56:23;15.50;1.00
26743;DHT22;14341;51.256;22.478;2023-03-31T14:59:31;15.60;1.00
26743;DHT22;14341;51.256;22.478;2023-03-31T15:02:36;15.50;1.00
26743;DHT22;14341;51.256;22.478;2023-03-31T15:05:43;15.50;1.00
26743;DHT22;14341;51.256;22.478;2023-03-31T15:08:55;15.40;1.00
26743;DHT22;14341;51.256;22.478;2023-03-31T15:12:00;15.40;1.00
26743;DHT22;14341;51.256;22.478;2023-03-31T15:15:06;15.30;1.00
26743;DHT22;14341;51.256;22.478;2023-03-31T15:18:11;15.50;1.00
26743;DHT22;14341;51.256;22.478;2023-03-31T15:21:23;16.40;99.90
26743;DHT22;14341;51.256;22.478;2023-03-31T15:24:28;16.90;99.90
26743;DHT22;14341;51.256;22.478;2023-03-31T15:27:34;16.70;99.90
26743;DHT22;14341;51.256;22.478;2023-03-31T15:30:39;16.30;99.90
26743;DHT22;14341;51.256;22.478;2023-03-31T15:33:43;16.00;99.90
26743;DHT22;14341;51.256;22.478;2023-03-31T15:36:46;15.90;1.00
26743;DHT22;14341;51.256;22.478;2023-03-31T15:39:51;16.20;1.00
26743;DHT22;14341;51.256;22.478;2023-03-31T15:43:05;16.70;99.90
26743;DHT22;14341;51.256;22.478;2023-03-31T15:46:54;16.90;99.90
26743;DHT22;14341;51.256;22.478;2023-03-31T15:50:09;18.10;99.90
26743;DHT22;14341;51.256;22.478;2023-03-31T15:53:24;18.10;99.90
26743;DHT22;14341;51.256;22.478;2023-03-31T15:56:33;18.20;99.90
26743;DHT22;14341;51.256;22.478;2023-03-31T15:59:45;18.30;99.90
26743;DHT22;14341;51.256;22.478;2023-03-31T16:02:56;18.10;99.90
26743;DHT22;14341;51.256;22.478;2023-03-31T16:06:05;17.30;99.90
26743;DHT22;14341;51.256;22.478;2023-03-31T16:09:12;16.60;99.90
26743;DHT22;14341;51.256;22.478;2023-03-31T16:12:22;15.70;1.00
26743;DHT22;14341;51.256;22.478;2023-03-31T16:15:31;15.10;1.00
26743;DHT22;14341;51.256;22.478;2023-03-31T16:18:39;14.60;1.00
26743;DHT22;14341;51.256;22.478;2023-03-31T16:21:47;14.30;1.00
26743;DHT22;14341;51.256;22.478;2023-03-31T16:24:53;14.00;11.60
26743;DHT22;14341;51.256;22.478;2023-03-31T16:28:00;13.70;45.10
26743;DHT22;14341;51.256;22.478;2023-03-31T16:31:04;13.40;77.10
26743;DHT22;14341;51.256;22.478;2023-03-31T16:34:24;13.20;93.10
26743;DHT22;14341;51.256;22.478;2023-03-31T16:37:28;12.90;99.90
26743;DHT22;14341;51.256;22.478;2023-03-31T16:40:35;12.70;99.90
26743;DHT22;14341;51.256;22.478;2023-03-31T16:43:40;12.40;99.90
26743;DHT22;14341;51.256;22.478;2023-03-31T16:46:46;12.10;99.90
26743;DHT22;14341;51.256;22.478;2023-03-31T16:49:49;11.90;99.90
26743;DHT22;14341;51.256;22.478;2023-03-31T16:52:52;11.70;99.90
26743;DHT22;14341;51.256;22.478;2023-03-31T16:55:56;11.50;99.90
26743;DHT22;14341;51.256;22.478;2023-03-31T16:59:01;11.40;99.90
26743;DHT22;14341;51.256;22.478;2023-03-31T17:02:05;11.20;99.90
26743;DHT22;14341;51.256;22.478;2023-03-31T17:05:08;11.00;99.90
26743;DHT22;14341;51.256;22.478;2023-03-31T17:08:15;10.90;99.90
26743;DHT22;14341;51.256;22.478;2023-03-31T17:11:19;10.80;99.90
26743;DHT22;14341;51.256;22.478;2023-03-31T17:14:23;10.70;99.90
26743;DHT22;14341;51.256;22.478;2023-03-31T17:17:28;10.60;99.90
26743;DHT22;14341;51.256;22.478;2023-03-31T17:20:32;10.60;99.90
26743;DHT22;14341;51.256;22.478;2023-03-31T17:23:36;10.50;99.90
26743;DHT22;14341;51.256;22.478;2023-03-31T17:26:40;10.40;99.90
26743;DHT22;14341;51.256;22.478;2023-03-31T17:29:44;10.40;99.90
26743;DHT22;14341;51.256;22.478;2023-03-31T17:32:48;10.30;99.90
26743;DHT22;14341;51.256;22.478;2023-03-31T17:35:55;10.20;99.90
26743;DHT22;14341;51.256;22.478;2023-03-31T17:38:59;10.20;99.90
26743;DHT22;14341;51.256;22.478;2023-03-31T17:42:03;10.10;99.90
26743;DHT22;14341;51.256;22.478;2023-03-31T17:45:10;10.00;99.90
26743;DHT22;14341;51.256;22.478;2023-03-31T17:48:13;10.00;99.90
26743;DHT22;14341;51.256;22.478;2023-03-31T17:51:19;9.90;99.90
26743;DHT22;14341;51.256;22.478;2023-03-31T17:54:24;10.00;99.90
26743;DHT22;14341;51.256;22.478;2023-03-31T17:57:28;9.90;99.90
26743;DHT22;14341;51.256;22.478;2023-03-31T18:00:33;10.10;99.90
26743;DHT22;14341;51.256;22.478;2023-03-31T18:03:37;10.10;99.90
26743;DHT22;14341;51.256;22.478;2023-03-31T18:06:40;10.40;99.90
26743;DHT22;14341;51.256;22.478;2023-03-31T18:09:45;10.40;99.90
26743;DHT22;14341;51.256;22.478;2023-03-31T18:12:50;10.40;99.90
26743;DHT22;14341;51.256;22.478;2023-03-31T18:15:57;10.50;99.90
26743;DHT22;14341;51.256;22.478;2023-03-31T18:19:01;10.50;99.90
26743;DHT22;14341;51.256;22.478;2023-03-31T18:22:04;10.50;99.90
26743;DHT22;14341;51.256;22.478;2023-03-31T18:25:08;10.60;99.90
26743;DHT22;14341;51.256;22.478;2023-03-31T18:28:13;10.80;99.90
26743;DHT22;14341;51.256;22.478;2023-03-31T18:31:18;11.20;99.90
26743;DHT22;14341;51.256;22.478;2023-03-31T18:34:22;11.30;99.90
26743;DHT22;14341;51.256;22.478;2023-03-31T18:37:26;11.40;99.90
26743;DHT22;14341;51.256;22.478;2023-03-31T18:40:29;11.50;99.90
26743;DHT22;14341;51.256;22.478;2023-03-31T18:43:32;11.50;99.90
26743;DHT22;14341;51.256;22.478;2023-03-31T18:46:37;11.50;99.90
26743;DHT22;14341;51.256;22.478;2023-03-31T18:49:41;11.50;99.90
26743;DHT22;14341;51.256;22.478;2023-03-31T18:52:44;11.50;99.90
26743;DHT22;14341;51.256;22.478;2023-03-31T18:55:50;11.50;99.90
26743;DHT22;14341;51.256;22.478;2023-03-31T18:58:54;11.50;99.90
26743;DHT22;14341;51.256;22.478;2023-03-31T19:02:00;11.40;99.90
26743;DHT22;14341;51.256;22.478;2023-03-31T19:05:05;11.40;99.90
26743;DHT22;14341;51.256;22.478;2023-03-31T19:08:09;11.30;99.90
26743;DHT22;14341;51.256;22.478;2023-03-31T19:11:14;11.20;99.90
26743;DHT22;14341;51.256;22.478;2023-03-31T19:14:17;11.10;99.90
26743;DHT22;14341;51.256;22.478;2023-03-31T19:17:22;11.10;99.90
26743;DHT22;14341;51.256;22.478;2023-03-31T19:20:26;11.00;99.90
26743;DHT22;14341;51.256;22.478;2023-03-31T19:23:29;10.90;99.90
26743;DHT22;14341;51.256;22.478;2023-03-31T19:26:33;10.80;99.90
26743;DHT22;14341;51.256;22.478;2023-03-31T19:29:36;10.80;99.90
26743;DHT22;14341;51.256;22.478;2023-03-31T19:32:41;10.70;99.90
26743;DHT22;14341;51.256;22.478;2023-03-31T19:35:46;10.70;99.90
26743;DHT22;14341;51.256;22.478;2023-03-31T19:38:51;10.60;99.90
26743;DHT22;14341;51.256;22.478;2023-03-31T19:41:55;10.50;99.90
26743;DHT22;14341;51.256;22.478;2023-03-31T19:44:58;10.40;99.90
26743;DHT22;14341;51.256;22.478;2023-03-31T19:48:03;10.30;99.90
26743;DHT22;14341;51.256;22.478;2023-03-31T19:51:06;10.30;99.90
26743;DHT22;14341;51.256;22.478;2023-03-31T19:54:10;10.20;99.90
26743;DHT22;14341;51.256;22.478;2023-03-31T19:57:14;10.20;99.90
26743;DHT22;14341;51.256;22.478;2023-03-31T20:00:18;10.10;99.90
26743;DHT22;14341;51.256;22.478;2023-03-31T20:03:25;10.00;99.90
26743;DHT22;14341;51.256;22.478;2023-03-31T20:06:33;10.00;99.90
26743;DHT22;14341;51.256;22.478;2023-03-31T20:09:36;10.00;99.90